New Cypress, Kentucky
Current Conditions -  °F | °C
As of 10:15 PM on Friday 19 Dec 2014 (Local Time) from KUCY Reporting Station
Broken Clouds Broken Clouds  
Wind Chill: 34°   Ceiling: 11000
Heat Index: 34°   Visibility: 10mi
Dew Point: 30°   Wind: 3mph
Humidity: 87%   Direction: 30°NNE
Pressure: 30.25"   Gusts: NA
Location:  36.6807°N, 88.9572°W
Report Text: KUCY 200415Z AUTO 03003KT 10SM BKN110 01/M01 A3025 RMK
Loading
Personal Weather Stations






























Interactive Weather Map New forecast layout! Learn more

10-Day Weather Forecast

Advertisements
Track Severe Weather on mobile